Time;durP1;ratioP1;P1;durP2;ratioP2;P2;SDS_P1;SDS_P2;PMS_P1;PMS_P2;Temp;Humidity;BMP_temperature;BMP_pressure;BME280_temperature;BME280_humidity;BME280_pressure;Samples;Min_cycle;Max_cycle;Signal;HPM_P1;HPM_P2
2023/02/05 00:01:00;;;;;;;8.23;4.03;;;;;;;-1.66;73.72;101033.61;124633;1099;104217;-73
2023/02/05 00:03:43;;;;;;;8.70;3.80;;;;;;;-1.65;73.74;101032.85;124696;1099;104230;-74
2023/02/05 00:06:14;;;;;;;9.93;3.93;;;;;;;-1.62;73.69;101020.27;124618;1099;101862;-74
2023/02/05 00:08:45;;;;;;;9.83;4.07;;;;;;;-1.61;72.98;101034.92;124639;1098;103468;-74
2023/02/05 00:11:17;;;;;;;9.70;4.27;;;;;;;-1.62;71.90;101035.70;124622;1099;104101;-74
2023/02/05 00:13:48;;;;;;;9.50;3.73;;;;;;;-1.60;72.63;101039.32;124723;1099;104253;-73
2023/02/05 00:16:21;;;;;;;9.40;4.20;;;;;;;-1.58;72.40;101045.50;124653;1099;102629;-73
2023/02/05 00:18:53;;;;;;;7.67;3.60;;;;;;;-1.58;71.80;101053.22;124711;1099;104239;-73
2023/02/05 00:21:25;;;;;;;7.23;3.80;;;;;;;-1.57;72.08;101051.55;124656;1099;104402;-74
2023/02/05 00:23:56;;;;;;;7.15;3.60;;;;;;;-1.58;71.47;101048.08;124573;1099;102032;-73
2023/02/05 00:26:27;;;;;;;8.63;3.87;;;;;;;-1.57;70.65;101042.17;124607;1098;101846;-73
2023/02/05 00:28:58;;;;;;;7.60;3.57;;;;;;;-1.58;71.01;101055.80;124672;1099;104188;-74
2023/02/05 00:31:32;;;;;;;6.70;3.60;;;;;;;-1.58;70.68;101049.75;124704;1099;104238;-74
2023/02/05 00:34:03;;;;;;;7.90;3.75;;;;;;;-1.58;71.54;101058.38;124648;1099;104267;-74
2023/02/05 00:36:35;;;;;;;6.37;3.10;;;;;;;-1.60;70.59;101054.77;124515;1099;104217;-74
2023/02/05 00:39:10;;;;;;;8.30;3.63;;;;;;;-1.60;70.79;101054.77;124657;1099;101862;-74
2023/02/05 00:41:41;;;;;;;9.10;4.10;;;;;;;-1.61;70.60;101060.66;124662;1099;104220;-73
2023/02/05 00:44:12;;;;;;;11.33;3.83;;;;;;;-1.59;71.06;101058.23;124666;1099;104194;-74
2023/02/05 00:46:44;;;;;;;8.83;4.27;;;;;;;-1.60;70.39;101047.05;124631;1099;104290;-73
2023/02/05 00:49:15;;;;;;;8.37;3.73;;;;;;;-1.61;70.32;101052.94;124654;1099;104175;-74
2023/02/05 00:51:46;;;;;;;10.07;3.53;;;;;;;-1.61;69.96;101055.52;124625;1099;104204;-73
2023/02/05 00:54:17;;;;;;;6.27;3.47;;;;;;;-1.63;69.65;101068.23;124724;1098;104236;-73
2023/02/05 00:56:49;;;;;;;9.43;3.47;;;;;;;-1.62;69.88;101061.45;124653;1099;104190;-74
2023/02/05 00:59:20;;;;;;;7.10;3.40;;;;;;;-1.63;69.36;101057.94;124586;1099;104320;-73
2023/02/05 01:01:53;;;;;;;9.90;3.60;;;;;;;-1.65;69.14;101056.02;124682;1099;104289;-74
2023/02/05 01:04:24;;;;;;;8.90;3.37;;;;;;;-1.66;68.31;101056.77;124640;1099;102159;-74
2023/02/05 01:06:56;;;;;;;7.47;3.27;;;;;;;-1.69;68.77;101057.37;124746;1099;104175;-74
2023/02/05 01:09:27;;;;;;;7.97;3.30;;;;;;;-1.71;69.92;101056.34;124669;1099;104236;-74
2023/02/05 01:11:59;;;;;;;6.77;3.20;;;;;;;-1.73;69.66;101074.95;124615;1099;104354;-73
2023/02/05 01:14:31;;;;;;;9.97;3.70;;;;;;;-1.74;68.52;101068.02;124532;1099;104247;-74
2023/02/05 01:17:03;;;;;;;7.17;3.30;;;;;;;-1.74;68.56;101076.63;124673;1099;104172;-73
2023/02/05 01:19:34;;;;;;;8.20;3.20;;;;;;;-1.76;68.10;101078.16;124589;1098;104176;-74
2023/02/05 01:22:06;;;;;;;8.63;3.60;;;;;;;-1.78;68.26;101071.95;124346;1099;104191;-73
2023/02/05 01:24:37;;;;;;;8.77;3.40;;;;;;;-1.79;67.33;101084.67;124641;1099;104233;-73
2023/02/05 01:27:09;;;;;;;9.60;3.67;;;;;;;-1.81;68.81;101082.88;124673;1099;104297;-73
2023/02/05 01:29:40;;;;;;;8.80;3.50;;;;;;;-1.82;68.35;101085.31;124646;1099;104160;-73
2023/02/05 01:32:11;;;;;;;9.67;3.67;;;;;;;-1.85;68.55;101079.88;124638;1099;101932;-74
2023/02/05 01:34:42;;;;;;;11.40;4.10;;;;;;;-1.86;67.43;101088.34;124672;1099;104163;-73
2023/02/05 01:37:14;;;;;;;7.40;3.80;;;;;;;-1.89;67.78;101091.52;124660;1099;104191;-74
2023/02/05 01:39:46;;;;;;;10.73;4.60;;;;;;;-1.89;68.46;101091.52;124603;1099;102035;-73
2023/02/05 01:42:21;;;;;;;12.47;4.33;;;;;;;-1.91;67.31;101089.58;124652;1099;104158;-73
2023/02/05 01:45:23;;;;;;;6.97;3.70;;;;;;;-1.92;67.49;101091.23;124667;1098;101889;-73
2023/02/05 01:47:57;;;;;;;7.47;3.70;;;;;;;-1.95;67.12;101095.19;124665;1099;101922;-74
2023/02/05 01:50:32;;;;;;;12.43;4.25;;;;;;;-1.96;68.52;101102.01;124238;1099;104149;-73
2023/02/05 01:53:08;;;;;;;8.50;3.90;;;;;;;-1.98;67.21;101103.50;124653;1099;104226;-73
2023/02/05 01:55:44;;;;;;;10.40;4.57;;;;;;;-2.00;67.16;101111.08;124678;1099;101961;-73
2023/02/05 01:58:15;;;;;;;10.00;4.43;;;;;;;-2.02;68.48;101109.14;124487;1099;104258;-73
2023/02/05 02:00:47;;;;;;;9.20;4.10;;;;;;;-2.04;67.29;101108.06;124634;1099;104745;-73
2023/02/05 02:03:19;;;;;;;9.77;4.30;;;;;;;-2.07;66.98;101103.55;124274;1099;102393;-74
2023/02/05 02:05:51;;;;;;;11.20;4.20;;;;;;;-2.10;66.74;101103.27;124188;1099;104198;-73
2023/02/05 02:08:23;;;;;;;11.90;4.97;;;;;;;-2.14;67.04;101118.25;124218;1099;104746;-73
2023/02/05 02:10:56;;;;;;;10.33;4.47;;;;;;;-2.19;66.96;101108.41;124230;1099;104166;-74
2023/02/05 02:13:30;;;;;;;11.05;4.60;;;;;;;-2.24;66.55;101119.94;124579;1099;103443;-73
2023/02/05 02:16:02;;;;;;;11.70;4.45;;;;;;;-2.26;66.72;101123.11;124643;1099;104188;-73
2023/02/05 02:18:35;;;;;;;14.00;4.63;;;;;;;-2.28;67.35;101120.38;124628;1099;104507;-73
2023/02/05 02:21:29;;;;;;;14.60;4.50;;;;;;;-2.31;67.11;101125.23;124659;1099;104163;-73
2023/02/05 02:24:20;;;;;;;11.85;4.17;;;;;;;-2.38;67.00;101141.73;124594;1099;104233;-73
2023/02/05 02:27:05;;;;;;;11.20;4.67;;;;;;;-2.43;67.70;101127.53;124645;1099;102278;-73
2023/02/05 02:29:42;;;;;;;10.83;4.77;;;;;;;-2.48;67.04;101122.69;124561;1099;104238;-73
2023/02/05 02:32:20;;;;;;;7.57;3.93;;;;;;;-2.51;67.75;101132.67;124594;1099;104172;-73
2023/02/05 02:35:00;;;;;;;10.60;4.30;;;;;;;-2.55;67.70;101134.05;124628;1099;104245;-73
2023/02/05 02:37:37;;;;;;;13.45;4.70;;;;;;;-2.60;67.78;101132.67;124640;1098;104278;-73
2023/02/05 02:40:16;;;;;;;12.85;4.50;;;;;;;-2.66;67.44;101138.13;124185;1099;104169;-73
2023/02/05 02:42:54;;;;;;;11.33;4.23;;;;;;;-2.68;67.14;101138.73;124645;1099;104306;-74
2023/02/05 02:45:31;;;;;;;13.27;4.50;;;;;;;-2.74;67.62;101139.95;124617;1098;104179;-73
2023/02/05 02:48:04;;;;;;;13.77;4.33;;;;;;;-2.77;68.76;101141.31;124627;1099;104264;-73
2023/02/05 02:50:40;;;;;;;9.67;4.00;;;;;;;-2.80;67.61;101139.34;124593;1099;104226;-74
2023/02/05 02:53:16;;;;;;;9.67;3.97;;;;;;;-2.85;68.26;101145.69;124637;1099;101862;-73
2023/02/05 02:55:50;;;;;;;9.50;3.90;;;;;;;-2.86;68.05;101142.97;124737;1099;104163;-73
2023/02/05 02:58:27;;;;;;;11.73;4.40;;;;;;;-2.87;68.87;101151.42;124519;1099;104234;-73
2023/02/05 03:01:01;;;;;;;9.60;4.00;;;;;;;-2.89;67.69;101158.97;124639;1099;103977;-74
2023/02/05 03:03:41;;;;;;;12.30;4.07;;;;;;;-2.92;68.37;101153.53;124681;1098;104127;-73
2023/02/05 03:06:14;;;;;;;13.13;4.10;;;;;;;-2.94;68.48;101153.38;124658;1099;103986;-73
2023/02/05 03:08:54;;;;;;;10.00;4.10;;;;;;;-2.96;68.86;101162.60;124742;1099;103938;-74
2023/02/05 03:11:27;;;;;;;10.63;3.80;;;;;;;-2.96;68.28;101157.47;124625;1099;107961;-73
2023/02/05 03:13:59;;;;;;;8.83;4.00;;;;;;;-2.96;68.24;101162.60;124599;1099;102041;-73
2023/02/05 03:16:36;;;;;;;7.83;3.93;;;;;;;-2.98;68.48;101164.09;124606;1099;104123;-73
2023/02/05 03:19:09;;;;;;;7.85;4.10;;;;;;;-3.00;69.05;101164.71;124636;1099;103974;-73
2023/02/05 03:21:46;;;;;;;9.63;4.00;;;;;;;-3.02;68.18;101161.06;124665;1098;118467;-73
2023/02/05 03:24:18;;;;;;;10.43;4.07;;;;;;;-3.03;68.77;101161.83;124559;1099;103980;-73
2023/02/05 03:26:51;;;;;;;8.83;4.13;;;;;;;-3.02;69.28;101168.77;124652;1098;101606;-74
2023/02/05 03:29:29;;;;;;;13.07;4.87;;;;;;;-3.04;68.54;101166.04;124555;1099;104124;-74
2023/02/05 03:32:13;;;;;;;11.35;4.40;;;;;;;-3.05;68.41;101166.81;124628;1099;103970;-73
2023/02/05 03:35:01;;;;;;;14.00;4.70;;;;;;;-3.04;69.48;101168.61;124685;1098;103951;-73
2023/02/05 03:37:44;;;;;;;12.57;4.60;;;;;;;-3.05;69.63;101177.09;124228;1099;101782;-73
2023/02/05 03:40:22;;;;;;;10.80;4.40;;;;;;;-3.04;68.45;101171.17;124608;1099;101737;-74
2023/02/05 03:43:05;;;;;;;10.87;4.27;;;;;;;-3.00;69.69;101177.55;124251;1099;101802;-73
2023/02/05 03:45:49;;;;;;;15.87;4.80;;;;;;;-2.97;68.66;101181.32;124261;1099;101691;-73
2023/02/05 03:48:47;;;;;;;11.37;5.17;;;;;;;-2.96;69.68;101180.58;124259;1099;101721;-73
2023/02/05 03:51:31;;;;;;;10.87;4.30;;;;;;;-2.95;68.87;101177.23;124377;1099;104144;-73
2023/02/05 03:54:06;;;;;;;;;;;;;;;-2.93;69.00;101180.88;124710;1099;103980;-73
2023/02/05 03:56:46;;;;;;;9.88;3.70;;;;;;;-2.89;69.14;101182.09;124611;1099;104012;-75
2023/02/05 03:59:20;;;;;;;10.83;4.20;;;;;;;-2.87;69.10;101185.70;124234;1099;103979;-73
2023/02/05 04:01:53;;;;;;;10.37;4.07;;;;;;;-2.84;69.09;101187.69;124397;1099;103176;-73
2023/02/05 04:04:26;;;;;;;8.67;3.70;;;;;;;-2.86;69.09;101186.64;124566;1099;103944;-74
2023/02/05 04:06:58;;;;;;;7.53;3.70;;;;;;;-2.87;69.87;101185.70;124615;1098;104003;-73
2023/02/05 04:09:31;;;;;;;10.23;4.37;;;;;;;-2.87;69.52;101195.08;124250;1099;104031;-74
2023/02/05 04:12:03;;;;;;;8.90;3.63;;;;;;;-2.87;69.10;101203.69;124592;1099;101633;-73
2023/02/05 04:14:35;;;;;;;12.50;4.20;;;;;;;-2.91;69.90;101197.34;124667;1099;104057;-73
2023/02/05 04:17:10;;;;;;;8.53;4.03;;;;;;;-2.93;69.43;101192.80;124577;1099;104032;-73
2023/02/05 04:19:42;;;;;;;10.60;3.70;;;;;;;-2.94;69.75;101202.17;124671;1099;104041;-73
2023/02/05 04:22:15;;;;;;;9.37;3.80;;;;;;;-2.98;70.29;101205.17;124397;1099;104044;-73
2023/02/05 04:24:49;;;;;;;9.38;4.12;;;;;;;-3.00;69.98;101198.09;124653;1099;104034;-73
2023/02/05 04:27:22;;;;;;;8.00;3.60;;;;;;;-3.02;69.90;101202.14;124220;1102;104514;-73
2023/02/05 04:29:54;;;;;;;7.93;3.50;;;;;;;-3.04;69.33;101209.69;124601;1099;101932;-74
2023/02/05 04:32:26;;;;;;;14.27;3.90;;;;;;;-3.07;69.99;101210.31;124599;1099;103993;-73
2023/02/05 04:34:59;;;;;;;10.33;3.90;;;;;;;-3.08;69.94;101211.05;124574;1098;104420;-73
2023/02/05 04:37:31;;;;;;;11.27;3.70;;;;;;;-3.11;70.45;101209.84;124609;1099;103986;-73
2023/02/05 04:40:04;;;;;;;9.30;3.80;;;;;;;-3.11;70.16;101227.81;124588;1099;104093;-73
2023/02/05 04:42:36;;;;;;;10.37;3.83;;;;;;;-3.10;70.07;101212.56;124702;1098;103974;-73
2023/02/05 04:45:10;;;;;;;8.90;4.07;;;;;;;-3.09;69.77;101218.59;124647;1099;104009;-74
2023/02/05 04:47:42;;;;;;;7.27;3.60;;;;;;;-3.10;70.81;101211.64;124661;1099;103980;-73
2023/02/05 04:50:14;;;;;;;8.20;3.77;;;;;;;-3.12;70.04;101216.61;124693;1099;103969;-73
2023/02/05 04:52:46;;;;;;;7.43;3.80;;;;;;;-3.12;70.29;101210.59;124706;1099;102179;-74
2023/02/05 04:55:19;;;;;;;7.90;4.13;;;;;;;-3.13;70.29;101196.85;124642;1098;101657;-74
2023/02/05 04:57:51;;;;;;;9.23;3.80;;;;;;;-3.10;69.72;101209.06;124633;1099;101820;-73
2023/02/05 05:00:23;;;;;;;9.70;3.80;;;;;;;-3.10;70.33;101210.00;124647;1099;102075;-73
2023/02/05 05:02:56;;;;;;;5.53;3.10;;;;;;;-3.10;70.50;101201.37;124681;1099;104010;-73
2023/02/05 05:05:28;;;;;;;8.87;3.90;;;;;;;-3.09;70.31;101216.03;124621;1099;101821;-73
2023/02/05 05:08:02;;;;;;;7.70;3.60;;;;;;;-3.09;70.01;101214.36;124618;1099;104034;-73
2023/02/05 05:10:34;;;;;;;11.10;3.98;;;;;;;-3.06;70.90;101218.91;124637;1099;101697;-73
2023/02/05 05:13:06;;;;;;;7.60;3.73;;;;;;;-3.06;70.82;101226.61;124673;1099;104030;-73
2023/02/05 05:15:39;;;;;;;7.37;3.60;;;;;;;-3.04;69.79;101224.20;124643;1099;101683;-73
2023/02/05 05:18:11;;;;;;;8.30;3.80;;;;;;;-3.02;70.41;101213.34;124696;1099;103983;-74
2023/02/05 05:20:43;;;;;;;9.80;3.83;;;;;;;-3.01;70.37;101221.94;124627;1099;103990;-74
2023/02/05 05:23:16;;;;;;;10.37;3.80;;;;;;;-2.97;70.23;101221.52;124660;1099;104050;-74
2023/02/05 05:25:49;;;;;;;10.80;4.40;;;;;;;-2.94;70.62;101217.58;124571;1099;104045;-74
2023/02/05 05:28:21;;;;;;;9.73;4.20;;;;;;;-2.90;70.75;101224.86;124765;1099;103980;-73
2023/02/05 05:30:53;;;;;;;7.05;3.90;;;;;;;-2.86;71.33;101226.06;124626;1099;104062;-74
2023/02/05 05:33:26;;;;;;;7.83;3.97;;;;;;;-2.84;70.43;101232.25;124684;1099;101638;-74
2023/02/05 05:35:58;;;;;;;12.80;4.63;;;;;;;-2.82;71.13;101228.20;124664;1099;104047;-73
2023/02/05 05:38:30;;;;;;;9.20;4.23;;;;;;;-2.78;71.46;101229.40;124640;1099;104092;-73
2023/02/05 05:43:54;;;;;;;10.70;4.60;;;;;;;-2.76;71.37;101227.88;124647;1099;104204;-73
2023/02/05 05:46:27;;;;;;;11.03;4.10;;;;;;;-2.74;71.28;101234.10;124621;1099;103942;-73
2023/02/05 05:49:01;;;;;;;9.07;3.83;;;;;;;-2.72;70.39;101235.16;124656;1099;104023;-74
2023/02/05 05:51:33;;;;;;;12.25;4.42;;;;;;;-2.67;71.50;101240.75;124659;1099;103970;-73
2023/02/05 05:54:06;;;;;;;11.10;4.17;;;;;;;-2.63;71.65;101240.31;124637;1098;104064;-74
2023/02/05 05:56:38;;;;;;;8.93;4.10;;;;;;;-2.59;70.83;101237.28;124715;1099;103942;-74
2023/02/05 05:59:11;;;;;;;10.00;3.97;;;;;;;-2.56;70.75;101248.76;124621;1098;101664;-73
2023/02/05 06:01:43;;;;;;;8.70;3.80;;;;;;;-2.53;71.18;101249.06;124637;1099;101660;-74
2023/02/05 06:04:15;;;;;;;9.77;4.13;;;;;;;-2.51;71.37;101245.75;124622;1099;103999;-73
2023/02/05 06:06:48;;;;;;;9.10;3.93;;;;;;;-2.50;70.68;101245.91;124701;1099;102034;-73
2023/02/05 06:09:20;;;;;;;10.20;3.97;;;;;;;-2.49;71.56;101245.16;124620;1099;104166;-73
2023/02/05 06:11:52;;;;;;;6.07;3.50;;;;;;;-2.48;70.97;101249.52;124641;1099;104092;-73
2023/02/05 06:14:25;;;;;;;7.63;3.80;;;;;;;-2.46;71.00;101258.31;124619;1099;101622;-73
2023/02/05 06:16:57;;;;;;;7.97;4.27;;;;;;;-2.46;71.64;101245.47;124630;1099;103951;-73
2023/02/05 06:19:30;;;;;;;12.00;3.70;;;;;;;-2.43;70.77;101255.13;124713;1098;103944;-73
2023/02/05 06:22:02;;;;;;;9.40;3.93;;;;;;;-2.38;71.40;101261.65;124684;1099;103977;-73
2023/02/05 06:24:34;;;;;;;8.10;3.43;;;;;;;-2.36;70.91;101262.70;124611;1099;103958;-73
2023/02/05 06:27:06;;;;;;;8.93;3.80;;;;;;;-2.29;70.34;101261.63;124660;1099;104037;-74
2023/02/05 06:29:39;;;;;;;11.73;4.17;;;;;;;-2.22;70.71;101264.96;124632;1099;103945;-73
2023/02/05 06:32:11;;;;;;;8.53;3.33;;;;;;;-2.12;70.32;101271.02;124673;1099;102054;-74
2023/02/05 06:34:44;;;;;;;6.73;3.60;;;;;;;-2.05;70.39;101276.02;124691;1099;101873;-73
2023/02/05 06:37:16;;;;;;;8.30;3.40;;;;;;;-2.00;70.14;101275.69;124681;1099;103949;-73
2023/02/05 06:39:48;;;;;;;9.97;3.83;;;;;;;-1.88;70.62;101272.52;124649;1099;103942;-73
2023/02/05 06:42:20;;;;;;;7.83;3.53;;;;;;;-1.75;69.78;101283.23;124680;1099;102634;-73
2023/02/05 06:44:52;;;;;;;9.73;3.70;;;;;;;-1.61;70.39;101286.25;124659;1099;104030;-73
2023/02/05 06:47:25;;;;;;;7.40;3.40;;;;;;;-1.52;71.01;101288.03;124695;1099;101797;-74
2023/02/05 06:49:57;;;;;;;9.33;3.43;;;;;;;-1.41;69.76;101293.31;124621;1099;103945;-73
2023/02/05 06:52:29;;;;;;;5.23;3.17;;;;;;;-1.39;69.20;101302.08;124656;1099;101686;-74
2023/02/05 06:55:01;;;;;;;6.03;3.03;;;;;;;-1.46;69.14;101292.88;124610;1099;103952;-73
2023/02/05 06:57:33;;;;;;;9.65;3.80;;;;;;;-1.46;69.09;101296.34;124678;1099;104009;-74
2023/02/05 07:00:07;;;;;;;7.13;3.30;;;;;;;-1.46;69.55;101300.59;124671;1099;101958;-73
2023/02/05 07:02:39;;;;;;;8.18;3.40;;;;;;;-1.47;68.31;101291.05;124639;1099;101657;-73
2023/02/05 07:05:12;;;;;;;10.53;3.80;;;;;;;-1.43;69.68;101302.54;124627;1099;102963;-73
2023/02/05 07:07:44;;;;;;;9.63;3.43;;;;;;;-1.42;68.53;101299.21;124640;1099;103619;-73
2023/02/05 07:10:17;;;;;;;8.30;3.37;;;;;;;-1.38;68.75;101303.91;124655;1099;104111;-74
2023/02/05 07:12:49;;;;;;;6.67;3.30;;;;;;;-1.35;68.13;101297.38;124648;1098;101781;-73
2023/02/05 07:15:21;;;;;;;6.80;3.20;;;;;;;-1.34;68.19;101298.27;124557;1099;103881;-74
2023/02/05 07:17:54;;;;;;;7.10;2.87;;;;;;;-1.36;67.16;101303.28;124680;1099;103942;-73
2023/02/05 07:20:26;;;;;;;7.57;2.80;;;;;;;-1.41;66.40;101303.61;124601;1099;101731;-73
2023/02/05 07:22:59;;;;;;;7.10;3.40;;;;;;;-1.45;66.72;101302.39;124655;1099;101625;-73
2023/02/05 07:25:35;;;;;;;6.20;3.20;;;;;;;-1.46;66.77;101301.50;124646;1099;104195;-73
2023/02/05 07:28:08;;;;;;;5.40;2.93;;;;;;;-1.47;65.20;101286.80;124604;1099;101682;-73
2023/02/05 07:30:40;;;;;;;7.13;2.87;;;;;;;-1.48;65.61;101289.22;124619;1099;103185;-73
2023/02/05 07:33:12;;;;;;;4.50;2.80;;;;;;;-1.45;63.82;101299.81;124630;1098;101596;-73
2023/02/05 07:35:45;;;;;;;8.63;3.20;;;;;;;-1.43;63.89;101303.47;124663;1099;101625;-73
2023/02/05 07:38:17;;;;;;;5.33;2.80;;;;;;;-1.44;60.43;101296.49;124681;1099;103952;-73
2023/02/05 07:40:49;;;;;;;7.53;3.27;;;;;;;-1.44;61.18;101288.77;124600;1099;103967;-73
2023/02/05 07:43:21;;;;;;;3.50;2.17;;;;;;;-1.43;60.88;101312.84;124677;1099;104047;-73
2023/02/05 07:45:59;;;;;;;4.67;2.17;;;;;;;-1.45;60.40;101311.05;124632;1099;103939;-73
2023/02/05 07:48:32;;;;;;;4.03;2.77;;;;;;;-1.47;61.07;101309.07;124664;1099;103949;-73
2023/02/05 07:51:04;;;;;;;4.43;2.17;;;;;;;-1.42;59.59;101300.11;124652;1099;104174;-73
2023/02/05 07:53:37;;;;;;;6.73;2.40;;;;;;;-1.36;59.83;101297.23;124532;1099;104041;-73
2023/02/05 07:56:09;;;;;;;6.30;2.43;;;;;;;-1.32;58.54;101312.23;124627;1099;104009;-73
2023/02/05 07:58:42;;;;;;;4.73;2.27;;;;;;;-1.24;60.35;101315.53;124633;1099;104133;-73
2023/02/05 08:01:14;;;;;;;5.57;2.23;;;;;;;-1.14;61.83;101300.17;124583;1099;101660;-73
2023/02/05 08:03:46;;;;;;;5.97;2.30;;;;;;;-0.97;60.44;101301.78;124634;1099;104086;-73
2023/02/05 08:06:18;;;;;;;6.40;2.20;;;;;;;-0.96;58.26;101314.81;124601;1099;103948;-73
2023/02/05 08:08:50;;;;;;;1.83;1.00;;;;;;;-1.04;54.45;101327.70;124668;1099;101590;-73
2023/02/05 08:11:23;;;;;;;3.30;1.67;;;;;;;-1.01;55.05;101304.81;124654;1099;103970;-73
2023/02/05 08:13:55;;;;;;;6.83;1.93;;;;;;;-1.07;56.11;101317.15;124631;1099;101734;-73
2023/02/05 08:16:27;;;;;;;2.63;1.80;;;;;;;-1.01;57.26;101320.27;124598;1099;103974;-73
2023/02/05 08:18:59;;;;;;;2.30;1.83;;;;;;;-0.98;56.58;101307.69;124607;1099;101925;-73
2023/02/05 08:21:31;;;;;;;4.23;1.90;;;;;;;-0.83;57.68;101303.08;124602;1099;103998;-73
2023/02/05 08:24:04;;;;;;;4.83;2.07;;;;;;;-0.71;54.88;101321.37;124631;1098;104048;-73
2023/02/05 08:26:36;;;;;;;5.93;2.43;;;;;;;-0.49;56.10;101314.86;124632;1099;101994;-73
2023/02/05 08:29:09;;;;;;;5.17;2.50;;;;;;;-0.32;57.53;101320.69;124658;1099;101827;-73
2023/02/05 08:31:41;;;;;;;9.07;1.93;;;;;;;-0.25;55.34;101315.30;124721;1099;103983;-73
2023/02/05 08:34:15;;;;;;;5.03;1.77;;;;;;;-0.31;52.96;101318.25;124732;1099;103852;-73
2023/02/05 08:36:47;;;;;;;3.55;2.10;;;;;;;-0.27;55.23;101322.01;124742;1099;101782;-73
2023/02/05 08:39:19;;;;;;;2.97;1.90;;;;;;;-0.20;54.73;101314.08;124672;1099;103973;-73
2023/02/05 08:41:51;;;;;;;5.15;1.80;;;;;;;-0.15;53.68;101323.13;124681;1099;101777;-73
2023/02/05 08:44:23;;;;;;;4.53;1.90;;;;;;;-0.14;52.85;101330.12;124593;1099;103949;-73
2023/02/05 08:46:56;;;;;;;3.20;2.13;;;;;;;-0.31;52.59;101325.05;124751;1099;103945;-73
2023/02/05 08:49:28;;;;;;;3.47;1.70;;;;;;;-0.49;52.27;101320.02;124628;1099;104127;-73
2023/02/05 08:52:01;;;;;;;4.33;2.20;;;;;;;-0.58;53.60;101324.31;124597;1099;104130;-73
2023/02/05 08:54:33;;;;;;;2.77;1.83;;;;;;;-0.72;52.95;101333.34;124601;1099;104027;-73
2023/02/05 08:57:06;;;;;;;4.80;2.20;;;;;;;-0.76;53.27;101326.99;124687;1099;101688;-73
2023/02/05 08:59:38;;;;;;;4.77;1.90;;;;;;;-0.68;54.45;101322.56;124629;1098;103935;-73
2023/02/05 09:02:13;;;;;;;4.73;1.90;;;;;;;-0.68;54.56;101314.83;124647;1097;103996;-73
2023/02/05 09:04:46;;;;;;;4.47;2.50;;;;;;;-0.48;54.46;101328.65;124724;1099;102274;-74
2023/02/05 09:07:18;;;;;;;7.23;2.80;;;;;;;-0.33;54.43;101312.02;124674;1098;101790;-73
2023/02/05 09:09:50;;;;;;;5.07;2.20;;;;;;;-0.22;54.14;101316.52;124621;1099;104067;-73
2023/02/05 09:12:23;;;;;;;6.03;2.53;;;;;;;-0.18;53.23;101307.38;124629;1099;103945;-73
2023/02/05 09:14:55;;;;;;;5.10;2.40;;;;;;;-0.14;53.62;101327.54;124608;1099;102572;-73
2023/02/05 09:17:27;;;;;;;6.10;2.60;;;;;;;-0.29;53.45;101316.70;124611;1099;104054;-73
2023/02/05 09:20:00;;;;;;;3.77;2.40;;;;;;;-0.48;53.21;101305.44;124616;1099;101862;-73
2023/02/05 09:22:32;;;;;;;4.43;2.50;;;;;;;-0.64;52.80;101322.09;124591;1099;104034;-73
2023/02/05 09:25:04;;;;;;;4.87;2.67;;;;;;;-0.66;53.78;101323.59;124624;1099;103997;-73
2023/02/05 09:27:37;;;;;;;5.00;2.57;;;;;;;-0.51;54.31;101306.09;124597;1099;102077;-73
2023/02/05 09:30:11;;;;;;;4.30;2.50;;;;;;;-0.43;52.40;101323.17;124677;1099;101628;-73
2023/02/05 09:32:44;;;;;;;6.17;2.30;;;;;;;-0.52;51.44;101309.42;124745;1099;104142;-74
2023/02/05 09:35:17;;;;;;;6.57;2.20;;;;;;;-0.69;50.81;101325.00;124596;1099;103983;-73
2023/02/05 09:37:49;;;;;;;3.83;1.97;;;;;;;-0.67;51.85;101307.98;124646;1099;103949;-73
2023/02/05 09:40:27;;;;;;;5.43;2.50;;;;;;;-0.50;51.78;101294.98;124625;1099;101740;-73
2023/02/05 09:43:05;;;;;;;3.63;2.40;;;;;;;-0.26;52.94;101291.20;124678;1099;101554;-73
2023/02/05 09:45:46;;;;;;;4.97;2.40;;;;;;;-0.22;50.73;101298.45;124600;1098;104021;-73
2023/02/05 09:48:40;;;;;;;5.07;2.60;;;;;;;-0.28;51.53;101305.64;124593;1099;103956;-73
2023/02/05 09:51:13;;;;;;;6.17;2.60;;;;;;;-0.31;52.26;101314.73;124609;1099;104034;-73
2023/02/05 09:53:52;;;;;;;9.07;2.73;;;;;;;-0.28;52.12;101304.70;124697;1099;104009;-73
2023/02/05 09:56:27;;;;;;;5.13;2.73;;;;;;;-0.23;52.19;101296.63;124669;1099;102573;-73
2023/02/05 09:59:00;;;;;;;5.23;2.67;;;;;;;-0.21;51.30;101301.94;124566;1099;104024;-73
2023/02/05 10:01:47;;;;;;;7.13;2.80;;;;;;;-0.21;51.98;101307.09;124596;1099;103865;-73
2023/02/05 10:04:20;;;;;;;6.73;2.70;;;;;;;-0.14;51.37;101295.65;124636;1098;103997;-73
2023/02/05 10:07:19;;;;;;;8.07;2.90;;;;;;;0.06;52.06;101297.47;124644;1099;104085;-73
2023/02/05 10:10:21;;;;;;;4.80;2.40;;;;;;;0.10;51.18;101294.41;124581;1099;101708;-73
2023/02/05 10:13:31;;;;;;;5.90;2.50;;;;;;;0.00;48.53;101318.48;124631;1099;101758;-73
2023/02/05 10:16:27;;;;;;;3.73;2.27;;;;;;;0.20;50.14;101297.02;124610;1099;104034;-73
2023/02/05 10:19:21;;;;;;;6.87;2.60;;;;;;;0.19;50.24;101290.07;124641;1099;104047;-73
2023/02/05 10:22:17;;;;;;;6.60;2.37;;;;;;;0.04;48.96;101291.27;124696;1099;103971;-73
2023/02/05 10:25:12;;;;;;;6.23;2.77;;;;;;;-0.11;49.51;101289.12;124653;1099;104033;-73
2023/02/05 10:27:56;;;;;;;6.90;2.80;;;;;;;-0.24;50.01;101288.75;124614;1099;103475;-73
2023/02/05 10:30:36;;;;;;;8.30;3.10;;;;;;;-0.18;50.22;101273.84;124536;1099;108320;-73
2023/02/05 10:33:16;;;;;;;6.20;2.67;;;;;;;-0.14;50.73;101269.85;124676;1099;104074;-74
2023/02/05 10:35:59;;;;;;;9.27;2.87;;;;;;;-0.15;51.25;101284.44;124657;1099;101923;-73
2023/02/05 10:38:36;;;;;;;5.80;2.77;;;;;;;-0.22;50.54;101292.38;124660;1099;103939;-73
2023/02/05 10:41:17;;;;;;;5.03;2.50;;;;;;;-0.38;49.66;101278.06;124650;1099;103440;-73
2023/02/05 10:43:53;;;;;;;6.47;2.90;;;;;;;-0.29;49.41;101277.13;124619;1099;102013;-73
2023/02/05 10:46:33;;;;;;;5.80;2.20;;;;;;;-0.17;49.95;101280.82;124642;1099;104051;-73
2023/02/05 10:49:13;;;;;;;5.63;2.87;;;;;;;0.01;50.10;101268.66;124633;1099;103470;-73
2023/02/05 10:51:46;;;;;;;7.47;2.90;;;;;;;-0.01;49.28;101265.94;124689;1098;104133;-73
2023/02/05 10:54:24;;;;;;;7.40;2.50;;;;;;;-0.17;49.35;101275.66;124638;1099;104003;-73
2023/02/05 10:56:58;;;;;;;6.37;2.27;;;;;;;-0.34;48.79;101284.44;124565;1099;104047;-73
2023/02/05 10:59:34;;;;;;;4.45;2.67;;;;;;;-0.29;49.69;101292.59;124600;1098;104016;-74
2023/02/05 11:02:10;;;;;;;7.33;2.67;;;;;;;-0.13;49.71;101269.99;124584;1098;104040;-73
2023/02/05 11:04:47;;;;;;;4.13;2.40;;;;;;;-0.05;49.75;101284.52;124594;1099;103942;-73
2023/02/05 11:07:28;;;;;;;2.97;2.20;;;;;;;-0.11;49.90;101276.22;124708;1099;102126;-73
2023/02/05 11:10:16;;;;;;;4.87;2.90;;;;;;;-0.23;49.62;101290.58;124603;1098;104025;-73
2023/02/05 11:12:51;;;;;;;10.40;3.87;;;;;;;-0.27;50.99;101275.58;124627;1099;104003;-74
2023/02/05 11:15:26;;;;;;;8.27;3.40;;;;;;;-0.34;50.87;101288.67;124568;1099;104469;-74
2023/02/05 11:18:01;;;;;;;5.33;2.97;;;;;;;-0.37;50.79;101294.47;124631;1099;101686;-73
2023/02/05 11:20:35;;;;;;;5.07;2.73;;;;;;;-0.24;49.55;101274.17;124663;1099;102066;-74
2023/02/05 11:23:15;;;;;;;6.53;2.53;;;;;;;-0.20;50.27;101290.86;124650;1098;103977;-73
2023/02/05 11:25:56;;;;;;;6.03;2.93;;;;;;;-0.20;50.48;101275.38;124615;1099;102002;-73
2023/02/05 11:28:31;;;;;;;6.77;2.93;;;;;;;-0.33;50.12;101290.49;124391;1099;104526;-73
2023/02/05 11:31:20;;;;;;;4.97;2.73;;;;;;;-0.50;50.54;101284.67;124661;1099;101635;-74
2023/02/05 11:34:09;;;;;;;6.30;3.20;;;;;;;-0.58;51.03;101277.91;124629;1099;104178;-74
2023/02/05 11:36:50;;;;;;;5.47;3.10;;;;;;;-0.46;50.97;101271.31;124638;1099;101695;-72
2023/02/05 11:39:34;;;;;;;7.40;2.60;;;;;;;-0.29;50.75;101278.02;124663;1099;104012;-73
2023/02/05 11:42:19;;;;;;;10.50;3.70;;;;;;;-0.15;51.14;101278.38;124609;1099;110674;-73
2023/02/05 11:44:54;;;;;;;6.60;2.87;;;;;;;-0.06;50.71;101284.37;124667;1099;104065;-73